sensor_id;sensor_type;location;lat;lon;timestamp;P1;durP1;ratioP1;P2;durP2;ratioP2
2546;SDS011;1283;47.982;7.834;2024-01-06T00:02:16;7.20;;;2.88;;
2546;SDS011;1283;47.982;7.834;2024-01-06T00:04:44;7.88;;;3.03;;
2546;SDS011;1283;47.982;7.834;2024-01-06T00:07:10;8.52;;;3.13;;
2546;SDS011;1283;47.982;7.834;2024-01-06T00:09:38;6.45;;;2.88;;
2546;SDS011;1283;47.982;7.834;2024-01-06T00:12:05;6.72;;;3.13;;
2546;SDS011;1283;47.982;7.834;2024-01-06T00:14:32;8.15;;;2.88;;
2546;SDS011;1283;47.982;7.834;2024-01-06T00:16:58;13.60;;;3.83;;
2546;SDS011;1283;47.982;7.834;2024-01-06T00:19:25;6.22;;;2.70;;
2546;SDS011;1283;47.982;7.834;2024-01-06T00:21:53;5.50;;;3.08;;
2546;SDS011;1283;47.982;7.834;2024-01-06T00:24:19;7.00;;;3.15;;
2546;SDS011;1283;47.982;7.834;2024-01-06T00:26:45;8.00;;;2.90;;
2546;SDS011;1283;47.982;7.834;2024-01-06T00:29:12;10.15;;;2.83;;
2546;SDS011;1283;47.982;7.834;2024-01-06T00:31:38;14.60;;;2.90;;
2546;SDS011;1283;47.982;7.834;2024-01-06T00:34:05;5.28;;;2.50;;
2546;SDS011;1283;47.982;7.834;2024-01-06T00:36:31;8.80;;;2.63;;
2546;SDS011;1283;47.982;7.834;2024-01-06T00:38:59;6.22;;;2.60;;
2546;SDS011;1283;47.982;7.834;2024-01-06T00:41:25;4.95;;;2.67;;
2546;SDS011;1283;47.982;7.834;2024-01-06T00:43:52;6.68;;;3.10;;
2546;SDS011;1283;47.982;7.834;2024-01-06T00:46:18;4.60;;;2.83;;
2546;SDS011;1283;47.982;7.834;2024-01-06T00:48:44;7.53;;;3.30;;
2546;SDS011;1283;47.982;7.834;2024-01-06T00:51:11;6.25;;;2.70;;
2546;SDS011;1283;47.982;7.834;2024-01-06T00:53:37;9.52;;;2.72;;
2546;SDS011;1283;47.982;7.834;2024-01-06T00:56:05;8.07;;;2.45;;
2546;SDS011;1283;47.982;7.834;2024-01-06T00:58:32;9.43;;;2.50;;
2546;SDS011;1283;47.982;7.834;2024-01-06T01:00:58;6.93;;;2.70;;
2546;SDS011;1283;47.982;7.834;2024-01-06T01:03:24;6.00;;;2.17;;
2546;SDS011;1283;47.982;7.834;2024-01-06T01:05:51;8.23;;;2.63;;
2546;SDS011;1283;47.982;7.834;2024-01-06T01:08:17;4.32;;;2.40;;
2546;SDS011;1283;47.982;7.834;2024-01-06T01:10:44;6.18;;;2.70;;
2546;SDS011;1283;47.982;7.834;2024-01-06T01:13:12;6.07;;;2.45;;
2546;SDS011;1283;47.982;7.834;2024-01-06T01:15:38;4.38;;;2.30;;
2546;SDS011;1283;47.982;7.834;2024-01-06T01:18:05;6.90;;;2.45;;
2546;SDS011;1283;47.982;7.834;2024-01-06T01:20:31;8.63;;;2.70;;
2546;SDS011;1283;47.982;7.834;2024-01-06T01:22:58;4.32;;;2.67;;
2546;SDS011;1283;47.982;7.834;2024-01-06T01:25:24;8.25;;;2.50;;
2546;SDS011;1283;47.982;7.834;2024-01-06T01:27:50;5.13;;;2.65;;
2546;SDS011;1283;47.982;7.834;2024-01-06T01:30:18;8.40;;;2.78;;
2546;SDS011;1283;47.982;7.834;2024-01-06T01:32:45;4.50;;;2.50;;
2546;SDS011;1283;47.982;7.834;2024-01-06T01:35:11;6.53;;;2.70;;
2546;SDS011;1283;47.982;7.834;2024-01-06T01:37:38;7.82;;;3.00;;
2546;SDS011;1283;47.982;7.834;2024-01-06T01:40:05;8.25;;;3.13;;
2546;SDS011;1283;47.982;7.834;2024-01-06T01:42:32;8.75;;;3.17;;
2546;SDS011;1283;47.982;7.834;2024-01-06T01:44:58;4.68;;;2.72;;
2546;SDS011;1283;47.982;7.834;2024-01-06T01:47:26;6.85;;;2.70;;
2546;SDS011;1283;47.982;7.834;2024-01-06T01:49:53;5.40;;;2.78;;
2546;SDS011;1283;47.982;7.834;2024-01-06T01:52:20;10.07;;;3.28;;
2546;SDS011;1283;47.982;7.834;2024-01-06T01:54:47;4.85;;;2.88;;
2546;SDS011;1283;47.982;7.834;2024-01-06T01:57:13;6.65;;;3.10;;
2546;SDS011;1283;47.982;7.834;2024-01-06T01:59:41;9.00;;;3.03;;
2546;SDS011;1283;47.982;7.834;2024-01-06T02:02:08;6.63;;;2.70;;
2546;SDS011;1283;47.982;7.834;2024-01-06T02:04:36;6.80;;;2.92;;
2546;SDS011;1283;47.982;7.834;2024-01-06T02:07:02;7.32;;;2.75;;
2546;SDS011;1283;47.982;7.834;2024-01-06T02:09:29;12.98;;;4.63;;
2546;SDS011;1283;47.982;7.834;2024-01-06T02:11:56;6.22;;;3.13;;
2546;SDS011;1283;47.982;7.834;2024-01-06T02:14:23;7.85;;;2.60;;
2546;SDS011;1283;47.982;7.834;2024-01-06T02:16:49;6.80;;;2.63;;
2546;SDS011;1283;47.982;7.834;2024-01-06T02:19:16;5.90;;;2.85;;
2546;SDS011;1283;47.982;7.834;2024-01-06T02:21:44;9.05;;;2.72;;
2546;SDS011;1283;47.982;7.834;2024-01-06T02:24:16;5.38;;;2.78;;
2546;SDS011;1283;47.982;7.834;2024-01-06T02:26:43;8.73;;;2.58;;
2546;SDS011;1283;47.982;7.834;2024-01-06T02:29:09;8.35;;;2.50;;
2546;SDS011;1283;47.982;7.834;2024-01-06T02:31:36;8.98;;;2.70;;
2546;SDS011;1283;47.982;7.834;2024-01-06T02:34:02;5.65;;;2.58;;
2546;SDS011;1283;47.982;7.834;2024-01-06T02:36:28;6.05;;;3.35;;
2546;SDS011;1283;47.982;7.834;2024-01-06T02:38:55;6.97;;;2.75;;
2546;SDS011;1283;47.982;7.834;2024-01-06T02:41:23;7.40;;;2.78;;
2546;SDS011;1283;47.982;7.834;2024-01-06T02:43:50;6.80;;;2.70;;
2546;SDS011;1283;47.982;7.834;2024-01-06T02:46:16;6.72;;;2.65;;
2546;SDS011;1283;47.982;7.834;2024-01-06T02:48:43;5.45;;;2.10;;
2546;SDS011;1283;47.982;7.834;2024-01-06T02:51:10;7.75;;;2.60;;
2546;SDS011;1283;47.982;7.834;2024-01-06T02:53:37;5.32;;;2.20;;
2546;SDS011;1283;47.982;7.834;2024-01-06T02:56:03;4.65;;;2.22;;
2546;SDS011;1283;47.982;7.834;2024-01-06T02:58:32;4.03;;;2.28;;
2546;SDS011;1283;47.982;7.834;2024-01-06T03:00:58;6.10;;;2.60;;
2546;SDS011;1283;47.982;7.834;2024-01-06T03:03:24;6.35;;;2.28;;
2546;SDS011;1283;47.982;7.834;2024-01-06T03:05:51;9.65;;;2.60;;
2546;SDS011;1283;47.982;7.834;2024-01-06T03:08:17;10.70;;;2.95;;
2546;SDS011;1283;47.982;7.834;2024-01-06T03:10:44;9.13;;;2.58;;
2546;SDS011;1283;47.982;7.834;2024-01-06T03:13:10;6.97;;;2.25;;
2546;SDS011;1283;47.982;7.834;2024-01-06T03:15:38;6.72;;;2.65;;
2546;SDS011;1283;47.982;7.834;2024-01-06T03:18:04;5.82;;;2.20;;
2546;SDS011;1283;47.982;7.834;2024-01-06T03:20:31;3.63;;;2.30;;
2546;SDS011;1283;47.982;7.834;2024-01-06T03:22:57;6.97;;;2.45;;
2546;SDS011;1283;47.982;7.834;2024-01-06T03:25:24;5.28;;;2.25;;
2546;SDS011;1283;47.982;7.834;2024-01-06T03:27:50;7.75;;;2.70;;
2546;SDS011;1283;47.982;7.834;2024-01-06T03:30:17;6.93;;;2.35;;
2546;SDS011;1283;47.982;7.834;2024-01-06T03:32:45;5.60;;;2.28;;
2546;SDS011;1283;47.982;7.834;2024-01-06T03:35:11;7.35;;;2.67;;
2546;SDS011;1283;47.982;7.834;2024-01-06T03:37:37;8.38;;;2.25;;
2546;SDS011;1283;47.982;7.834;2024-01-06T03:40:04;7.47;;;2.90;;
2546;SDS011;1283;47.982;7.834;2024-01-06T03:42:32;3.70;;;2.13;;
2546;SDS011;1283;47.982;7.834;2024-01-06T03:44:58;4.50;;;2.00;;
2546;SDS011;1283;47.982;7.834;2024-01-06T03:47:25;6.07;;;2.25;;
2546;SDS011;1283;47.982;7.834;2024-01-06T03:49:53;3.30;;;2.00;;
2546;SDS011;1283;47.982;7.834;2024-01-06T03:52:19;5.30;;;2.20;;
2546;SDS011;1283;47.982;7.834;2024-01-06T03:54:45;4.97;;;2.60;;
2546;SDS011;1283;47.982;7.834;2024-01-06T03:57:12;6.00;;;2.30;;
2546;SDS011;1283;47.982;7.834;2024-01-06T03:59:38;8.50;;;2.70;;
2546;SDS011;1283;47.982;7.834;2024-01-06T04:02:05;5.63;;;2.22;;
2546;SDS011;1283;47.982;7.834;2024-01-06T04:04:31;6.15;;;2.50;;
2546;SDS011;1283;47.982;7.834;2024-01-06T04:06:59;7.22;;;1.80;;
2546;SDS011;1283;47.982;7.834;2024-01-06T04:09:26;8.52;;;2.40;;
2546;SDS011;1283;47.982;7.834;2024-01-06T04:11:53;3.85;;;2.00;;
2546;SDS011;1283;47.982;7.834;2024-01-06T04:14:19;7.00;;;2.53;;
2546;SDS011;1283;47.982;7.834;2024-01-06T04:16:45;8.55;;;2.40;;
2546;SDS011;1283;47.982;7.834;2024-01-06T04:19:12;7.95;;;2.35;;
2546;SDS011;1283;47.982;7.834;2024-01-06T04:21:40;5.95;;;2.58;;
2546;SDS011;1283;47.982;7.834;2024-01-06T04:24:08;5.57;;;2.00;;
2546;SDS011;1283;47.982;7.834;2024-01-06T04:26:34;5.80;;;2.70;;
2546;SDS011;1283;47.982;7.834;2024-01-06T04:29:00;3.58;;;1.88;;
2546;SDS011;1283;47.982;7.834;2024-01-06T04:31:27;5.13;;;2.20;;
2546;SDS011;1283;47.982;7.834;2024-01-06T04:33:53;4.82;;;2.03;;
2546;SDS011;1283;47.982;7.834;2024-01-06T04:36:20;4.05;;;1.90;;
2546;SDS011;1283;47.982;7.834;2024-01-06T04:38:46;9.35;;;2.20;;
2546;SDS011;1283;47.982;7.834;2024-01-06T04:41:14;3.53;;;2.10;;
2546;SDS011;1283;47.982;7.834;2024-01-06T04:43:40;3.90;;;2.08;;
2546;SDS011;1283;47.982;7.834;2024-01-06T04:46:07;5.13;;;1.65;;
2546;SDS011;1283;47.982;7.834;2024-01-06T04:48:33;4.97;;;1.70;;
2546;SDS011;1283;47.982;7.834;2024-01-06T04:50:59;4.80;;;2.10;;
2546;SDS011;1283;47.982;7.834;2024-01-06T04:53:28;3.03;;;1.70;;
2546;SDS011;1283;47.982;7.834;2024-01-06T04:55:54;3.97;;;1.75;;
2546;SDS011;1283;47.982;7.834;2024-01-06T04:58:22;4.93;;;2.10;;
2546;SDS011;1283;47.982;7.834;2024-01-06T05:00:48;5.45;;;2.20;;
2546;SDS011;1283;47.982;7.834;2024-01-06T05:03:17;5.68;;;2.10;;
2546;SDS011;1283;47.982;7.834;2024-01-06T05:05:44;5.90;;;2.33;;
2546;SDS011;1283;47.982;7.834;2024-01-06T05:08:10;5.00;;;2.08;;
2546;SDS011;1283;47.982;7.834;2024-01-06T05:10:36;4.93;;;1.75;;
2546;SDS011;1283;47.982;7.834;2024-01-06T05:13:03;5.13;;;2.17;;
2546;SDS011;1283;47.982;7.834;2024-01-06T05:15:31;5.47;;;1.73;;
2546;SDS011;1283;47.982;7.834;2024-01-06T05:17:57;3.72;;;1.83;;
2546;SDS011;1283;47.982;7.834;2024-01-06T05:20:24;4.78;;;1.80;;
2546;SDS011;1283;47.982;7.834;2024-01-06T05:22:50;4.85;;;1.45;;
2546;SDS011;1283;47.982;7.834;2024-01-06T05:25:17;4.05;;;1.85;;
2546;SDS011;1283;47.982;7.834;2024-01-06T05:27:44;7.43;;;1.98;;
2546;SDS011;1283;47.982;7.834;2024-01-06T05:30:10;3.97;;;1.42;;
2546;SDS011;1283;47.982;7.834;2024-01-06T05:32:38;4.60;;;1.67;;
2546;SDS011;1283;47.982;7.834;2024-01-06T05:35:05;3.38;;;1.60;;
2546;SDS011;1283;47.982;7.834;2024-01-06T05:37:32;5.15;;;1.77;;
2546;SDS011;1283;47.982;7.834;2024-01-06T05:39:58;3.22;;;1.50;;
2546;SDS011;1283;47.982;7.834;2024-01-06T05:42:26;4.50;;;1.48;;
2546;SDS011;1283;47.982;7.834;2024-01-06T05:44:53;2.13;;;1.50;;
2546;SDS011;1283;47.982;7.834;2024-01-06T05:47:19;3.25;;;1.67;;
2546;SDS011;1283;47.982;7.834;2024-01-06T05:49:47;5.60;;;1.95;;
2546;SDS011;1283;47.982;7.834;2024-01-06T05:52:14;6.93;;;1.55;;
2546;SDS011;1283;47.982;7.834;2024-01-06T05:54:41;3.50;;;1.50;;
2546;SDS011;1283;47.982;7.834;2024-01-06T05:57:08;2.00;;;1.33;;
2546;SDS011;1283;47.982;7.834;2024-01-06T05:59:34;5.85;;;1.70;;
2546;SDS011;1283;47.982;7.834;2024-01-06T06:02:01;4.95;;;1.85;;
2546;SDS011;1283;47.982;7.834;2024-01-06T06:04:28;4.55;;;1.98;;
2546;SDS011;1283;47.982;7.834;2024-01-06T06:06:56;2.92;;;1.55;;
2546;SDS011;1283;47.982;7.834;2024-01-06T06:09:22;3.60;;;1.50;;
2546;SDS011;1283;47.982;7.834;2024-01-06T06:11:49;10.13;;;2.67;;
2546;SDS011;1283;47.982;7.834;2024-01-06T06:14:15;7.95;;;1.55;;
2546;SDS011;1283;47.982;7.834;2024-01-06T06:16:42;2.83;;;1.63;;
2546;SDS011;1283;47.982;7.834;2024-01-06T06:19:08;4.50;;;1.70;;
2546;SDS011;1283;47.982;7.834;2024-01-06T06:21:34;2.70;;;1.58;;
2546;SDS011;1283;47.982;7.834;2024-01-06T06:24:02;5.60;;;1.88;;
2546;SDS011;1283;47.982;7.834;2024-01-06T06:26:29;6.70;;;1.88;;
2546;SDS011;1283;47.982;7.834;2024-01-06T06:28:57;5.32;;;1.80;;
2546;SDS011;1283;47.982;7.834;2024-01-06T06:31:24;4.72;;;1.42;;
2546;SDS011;1283;47.982;7.834;2024-01-06T06:33:50;3.80;;;1.58;;
2546;SDS011;1283;47.982;7.834;2024-01-06T06:36:16;4.22;;;1.35;;
2546;SDS011;1283;47.982;7.834;2024-01-06T06:38:43;4.10;;;1.77;;
2546;SDS011;1283;47.982;7.834;2024-01-06T06:41:11;3.55;;;1.63;;
2546;SDS011;1283;47.982;7.834;2024-01-06T06:43:37;3.72;;;1.50;;
2546;SDS011;1283;47.982;7.834;2024-01-06T06:46:03;5.00;;;1.60;;
2546;SDS011;1283;47.982;7.834;2024-01-06T06:48:30;7.90;;;2.38;;
2546;SDS011;1283;47.982;7.834;2024-01-06T06:50:56;2.60;;;1.58;;
2546;SDS011;1283;47.982;7.834;2024-01-06T06:53:23;5.47;;;1.85;;
2546;SDS011;1283;47.982;7.834;2024-01-06T06:55:49;7.88;;;1.92;;
2546;SDS011;1283;47.982;7.834;2024-01-06T06:58:17;4.55;;;1.80;;
2546;SDS011;1283;47.982;7.834;2024-01-06T07:00:43;2.80;;;1.27;;
2546;SDS011;1283;47.982;7.834;2024-01-06T07:03:10;3.97;;;1.40;;
2546;SDS011;1283;47.982;7.834;2024-01-06T07:05:36;3.92;;;1.50;;
2546;SDS011;1283;47.982;7.834;2024-01-06T07:08:04;2.88;;;1.20;;
2546;SDS011;1283;47.982;7.834;2024-01-06T07:10:30;6.20;;;1.50;;
2546;SDS011;1283;47.982;7.834;2024-01-06T07:12:57;4.30;;;1.30;;
2546;SDS011;1283;47.982;7.834;2024-01-06T07:15:25;3.58;;;1.55;;
2546;SDS011;1283;47.982;7.834;2024-01-06T07:17:51;4.40;;;1.30;;
2546;SDS011;1283;47.982;7.834;2024-01-06T07:20:17;5.97;;;1.73;;
2546;SDS011;1283;47.982;7.834;2024-01-06T07:22:44;6.80;;;1.80;;
2546;SDS011;1283;47.982;7.834;2024-01-06T07:25:11;4.85;;;2.10;;
2546;SDS011;1283;47.982;7.834;2024-01-06T07:27:37;5.53;;;1.85;;
2546;SDS011;1283;47.982;7.834;2024-01-06T07:30:04;4.65;;;1.75;;
2546;SDS011;1283;47.982;7.834;2024-01-06T07:32:34;4.78;;;2.10;;
2546;SDS011;1283;47.982;7.834;2024-01-06T07:35:00;6.18;;;1.80;;
2546;SDS011;1283;47.982;7.834;2024-01-06T07:37:27;8.73;;;1.90;;
2546;SDS011;1283;47.982;7.834;2024-01-06T07:39:54;5.85;;;1.90;;
2546;SDS011;1283;47.982;7.834;2024-01-06T07:42:20;5.35;;;2.22;;
2546;SDS011;1283;47.982;7.834;2024-01-06T07:44:47;4.25;;;2.22;;
2546;SDS011;1283;47.982;7.834;2024-01-06T07:47:13;2.90;;;1.75;;
2546;SDS011;1283;47.982;7.834;2024-01-06T07:49:41;6.93;;;2.20;;
2546;SDS011;1283;47.982;7.834;2024-01-06T07:52:08;4.40;;;1.60;;
2546;SDS011;1283;47.982;7.834;2024-01-06T07:54:34;5.93;;;1.63;;
2546;SDS011;1283;47.982;7.834;2024-01-06T07:57:01;8.38;;;2.00;;
2546;SDS011;1283;47.982;7.834;2024-01-06T07:59:27;6.00;;;1.40;;
2546;SDS011;1283;47.982;7.834;2024-01-06T08:01:54;6.45;;;1.88;;
2546;SDS011;1283;47.982;7.834;2024-01-06T08:04:20;4.90;;;1.58;;
2546;SDS011;1283;47.982;7.834;2024-01-06T08:06:48;7.93;;;2.45;;
2546;SDS011;1283;47.982;7.834;2024-01-06T08:09:14;6.40;;;2.22;;
2546;SDS011;1283;47.982;7.834;2024-01-06T08:11:41;8.77;;;1.67;;
2546;SDS011;1283;47.982;7.834;2024-01-06T08:14:07;6.15;;;1.60;;
2546;SDS011;1283;47.982;7.834;2024-01-06T08:16:34;8.27;;;3.00;;
2546;SDS011;1283;47.982;7.834;2024-01-06T08:19:01;9.23;;;3.20;;
2546;SDS011;1283;47.982;7.834;2024-01-06T08:21:28;8.60;;;2.47;;
2546;SDS011;1283;47.982;7.834;2024-01-06T08:23:56;7.20;;;2.33;;
2546;SDS011;1283;47.982;7.834;2024-01-06T08:26:22;5.22;;;2.00;;
2546;SDS011;1283;47.982;7.834;2024-01-06T08:28:49;5.55;;;2.45;;
2546;SDS011;1283;47.982;7.834;2024-01-06T08:31:15;3.88;;;1.83;;
2546;SDS011;1283;47.982;7.834;2024-01-06T08:33:42;3.90;;;1.85;;
2546;SDS011;1283;47.982;7.834;2024-01-06T08:36:08;3.97;;;1.40;;
2546;SDS011;1283;47.982;7.834;2024-01-06T08:38:35;8.73;;;1.33;;
2546;SDS011;1283;47.982;7.834;2024-01-06T08:41:03;3.30;;;1.60;;
2546;SDS011;1283;47.982;7.834;2024-01-06T08:43:30;2.70;;;1.45;;
2546;SDS011;1283;47.982;7.834;2024-01-06T08:45:56;3.63;;;1.90;;
2546;SDS011;1283;47.982;7.834;2024-01-06T08:48:23;8.57;;;3.00;;
2546;SDS011;1283;47.982;7.834;2024-01-06T08:50:49;8.57;;;3.65;;
2546;SDS011;1283;47.982;7.834;2024-01-06T08:53:16;6.63;;;3.20;;
2546;SDS011;1283;47.982;7.834;2024-01-06T08:55:42;6.57;;;2.80;;
2546;SDS011;1283;47.982;7.834;2024-01-06T08:58:10;5.78;;;2.60;;
2546;SDS011;1283;47.982;7.834;2024-01-06T09:00:36;4.93;;;2.50;;
2546;SDS011;1283;47.982;7.834;2024-01-06T09:03:03;12.70;;;2.63;;
2546;SDS011;1283;47.982;7.834;2024-01-06T09:05:30;8.05;;;2.90;;
2546;SDS011;1283;47.982;7.834;2024-01-06T09:07:56;8.18;;;2.83;;
2546;SDS011;1283;47.982;7.834;2024-01-06T09:10:23;4.53;;;2.25;;
2546;SDS011;1283;47.982;7.834;2024-01-06T09:12:49;4.82;;;2.25;;
2546;SDS011;1283;47.982;7.834;2024-01-06T09:15:17;7.70;;;2.40;;
2546;SDS011;1283;47.982;7.834;2024-01-06T09:17:43;4.68;;;2.35;;
2546;SDS011;1283;47.982;7.834;2024-01-06T09:20:10;11.23;;;2.85;;
2546;SDS011;1283;47.982;7.834;2024-01-06T09:22:37;4.38;;;2.33;;
2546;SDS011;1283;47.982;7.834;2024-01-06T09:25:04;3.85;;;1.90;;
2546;SDS011;1283;47.982;7.834;2024-01-06T09:27:31;3.95;;;1.35;;
2546;SDS011;1283;47.982;7.834;2024-01-06T09:29:57;3.10;;;1.20;;
2546;SDS011;1283;47.982;7.834;2024-01-06T09:32:25;3.58;;;1.52;;
2546;SDS011;1283;47.982;7.834;2024-01-06T09:34:52;4.78;;;1.42;;
2546;SDS011;1283;47.982;7.834;2024-01-06T09:37:18;2.33;;;1.48;;
2546;SDS011;1283;47.982;7.834;2024-01-06T09:39:44;3.13;;;1.60;;
2546;SDS011;1283;47.982;7.834;2024-01-06T09:42:11;3.72;;;1.55;;
2546;SDS011;1283;47.982;7.834;2024-01-06T09:44:37;2.92;;;1.50;;
2546;SDS011;1283;47.982;7.834;2024-01-06T09:47:04;6.88;;;1.42;;
2546;SDS011;1283;47.982;7.834;2024-01-06T09:49:33;3.33;;;1.50;;
2546;SDS011;1283;47.982;7.834;2024-01-06T09:52:01;4.10;;;2.40;;
2546;SDS011;1283;47.982;7.834;2024-01-06T09:54:29;6.45;;;1.65;;
2546;SDS011;1283;47.982;7.834;2024-01-06T09:56:58;6.53;;;2.30;;
2546;SDS011;1283;47.982;7.834;2024-01-06T09:59:25;3.72;;;1.55;;
2546;SDS011;1283;47.982;7.834;2024-01-06T10:01:52;7.70;;;1.60;;
2546;SDS011;1283;47.982;7.834;2024-01-06T10:04:19;7.38;;;2.30;;
2546;SDS011;1283;47.982;7.834;2024-01-06T10:06:47;4.20;;;1.65;;
2546;SDS011;1283;47.982;7.834;2024-01-06T10:09:13;10.32;;;1.80;;
2546;SDS011;1283;47.982;7.834;2024-01-06T10:11:39;4.90;;;2.38;;
2546;SDS011;1283;47.982;7.834;2024-01-06T10:14:06;4.03;;;1.50;;
2546;SDS011;1283;47.982;7.834;2024-01-06T10:16:33;5.18;;;1.60;;
2546;SDS011;1283;47.982;7.834;2024-01-06T10:19:00;4.30;;;1.70;;
2546;SDS011;1283;47.982;7.834;2024-01-06T10:21:26;10.43;;;1.80;;
2546;SDS011;1283;47.982;7.834;2024-01-06T10:23:54;4.97;;;1.60;;
2546;SDS011;1283;47.982;7.834;2024-01-06T10:26:21;4.47;;;1.45;;
2546;SDS011;1283;47.982;7.834;2024-01-06T10:28:48;5.28;;;1.80;;
2546;SDS011;1283;47.982;7.834;2024-01-06T10:31:15;6.03;;;1.55;;
2546;SDS011;1283;47.982;7.834;2024-01-06T10:33:41;3.35;;;1.55;;
2546;SDS011;1283;47.982;7.834;2024-01-06T10:36:07;7.30;;;1.90;;
2546;SDS011;1283;47.982;7.834;2024-01-06T10:38:34;5.15;;;2.35;;
2546;SDS011;1283;47.982;7.834;2024-01-06T10:41:03;2.67;;;1.52;;
2546;SDS011;1283;47.982;7.834;2024-01-06T10:43:32;4.20;;;1.40;;
2546;SDS011;1283;47.982;7.834;2024-01-06T10:46:01;3.83;;;1.60;;
2546;SDS011;1283;47.982;7.834;2024-01-06T10:48:29;4.72;;;1.50;;
2546;SDS011;1283;47.982;7.834;2024-01-06T10:50:56;6.40;;;1.50;;
2546;SDS011;1283;47.982;7.834;2024-01-06T10:53:25;5.45;;;1.42;;
2546;SDS011;1283;47.982;7.834;2024-01-06T10:55:53;4.68;;;1.70;;
2546;SDS011;1283;47.982;7.834;2024-01-06T10:58:21;4.47;;;1.30;;
2546;SDS011;1283;47.982;7.834;2024-01-06T11:00:47;7.75;;;1.45;;
2546;SDS011;1283;47.982;7.834;2024-01-06T11:03:14;5.10;;;1.85;;
2546;SDS011;1283;47.982;7.834;2024-01-06T11:05:40;4.90;;;1.73;;
2546;SDS011;1283;47.982;7.834;2024-01-06T11:08:07;2.65;;;1.35;;
2546;SDS011;1283;47.982;7.834;2024-01-06T11:10:36;2.83;;;1.05;;
2546;SDS011;1283;47.982;7.834;2024-01-06T11:13:10;5.60;;;1.75;;
2546;SDS011;1283;47.982;7.834;2024-01-06T11:15:46;3.97;;;1.75;;
2546;SDS011;1283;47.982;7.834;2024-01-06T11:18:32;2.80;;;1.30;;
2546;SDS011;1283;47.982;7.834;2024-01-06T11:21:15;5.78;;;1.75;;
2546;SDS011;1283;47.982;7.834;2024-01-06T11:23:44;4.10;;;1.63;;
2546;SDS011;1283;47.982;7.834;2024-01-06T11:26:11;3.40;;;1.73;;
2546;SDS011;1283;47.982;7.834;2024-01-06T11:28:43;5.57;;;1.50;;
2546;SDS011;1283;47.982;7.834;2024-01-06T11:31:11;4.57;;;2.10;;
2546;SDS011;1283;47.982;7.834;2024-01-06T11:33:40;4.10;;;1.88;;
2546;SDS011;1283;47.982;7.834;2024-01-06T11:36:08;2.95;;;1.60;;
2546;SDS011;1283;47.982;7.834;2024-01-06T11:38:37;3.83;;;1.80;;
2546;SDS011;1283;47.982;7.834;2024-01-06T11:41:04;4.15;;;1.83;;
2546;SDS011;1283;47.982;7.834;2024-01-06T11:43:33;6.40;;;2.03;;
2546;SDS011;1283;47.982;7.834;2024-01-06T11:46:00;4.47;;;1.50;;
2546;SDS011;1283;47.982;7.834;2024-01-06T11:48:29;3.70;;;1.40;;
2546;SDS011;1283;47.982;7.834;2024-01-06T11:50:56;5.32;;;1.83;;
2546;SDS011;1283;47.982;7.834;2024-01-06T11:53:23;4.05;;;1.52;;
2546;SDS011;1283;47.982;7.834;2024-01-06T11:55:52;3.63;;;1.65;;
2546;SDS011;1283;47.982;7.834;2024-01-06T11:58:19;5.13;;;2.05;;
2546;SDS011;1283;47.982;7.834;2024-01-06T12:00:54;2.85;;;1.10;;
2546;SDS011;1283;47.982;7.834;2024-01-06T12:03:21;2.40;;;1.35;;
2546;SDS011;1283;47.982;7.834;2024-01-06T12:05:53;3.90;;;1.38;;
2546;SDS011;1283;47.982;7.834;2024-01-06T12:08:25;2.47;;;1.05;;
2546;SDS011;1283;47.982;7.834;2024-01-06T12:11:01;3.42;;;1.20;;
2546;SDS011;1283;47.982;7.834;2024-01-06T12:13:28;2.03;;;1.25;;
2546;SDS011;1283;47.982;7.834;2024-01-06T12:15:54;2.70;;;1.25;;
2546;SDS011;1283;47.982;7.834;2024-01-06T12:18:21;1.98;;;1.20;;
2546;SDS011;1283;47.982;7.834;2024-01-06T12:20:49;3.88;;;1.30;;
2546;SDS011;1283;47.982;7.834;2024-01-06T12:23:24;6.20;;;1.75;;
2546;SDS011;1283;47.982;7.834;2024-01-06T12:25:52;2.60;;;1.30;;
2546;SDS011;1283;47.982;7.834;2024-01-06T12:28:18;7.22;;;1.55;;
2546;SDS011;1283;47.982;7.834;2024-01-06T12:30:45;4.80;;;1.58;;
2546;SDS011;1283;47.982;7.834;2024-01-06T12:33:11;3.03;;;1.60;;
2546;SDS011;1283;47.982;7.834;2024-01-06T12:35:39;5.22;;;1.65;;
2546;SDS011;1283;47.982;7.834;2024-01-06T12:38:06;4.07;;;1.90;;
2546;SDS011;1283;47.982;7.834;2024-01-06T12:40:36;3.92;;;1.58;;
2546;SDS011;1283;47.982;7.834;2024-01-06T12:43:03;3.92;;;1.58;;
2546;SDS011;1283;47.982;7.834;2024-01-06T12:45:30;2.97;;;1.50;;
2546;SDS011;1283;47.982;7.834;2024-01-06T12:47:56;3.10;;;1.50;;
2546;SDS011;1283;47.982;7.834;2024-01-06T12:50:22;2.55;;;1.42;;
2546;SDS011;1283;47.982;7.834;2024-01-06T12:52:49;3.85;;;1.95;;
2546;SDS011;1283;47.982;7.834;2024-01-06T12:55:15;7.88;;;1.80;;
2546;SDS011;1283;47.982;7.834;2024-01-06T12:57:43;3.97;;;1.90;;
2546;SDS011;1283;47.982;7.834;2024-01-06T13:00:10;6.43;;;2.67;;
2546;SDS011;1283;47.982;7.834;2024-01-06T13:02:37;7.20;;;2.50;;
2546;SDS011;1283;47.982;7.834;2024-01-06T13:05:04;4.88;;;1.92;;
2546;SDS011;1283;47.982;7.834;2024-01-06T13:07:30;2.80;;;1.63;;
2546;SDS011;1283;47.982;7.834;2024-01-06T13:09:57;4.07;;;2.10;;
2546;SDS011;1283;47.982;7.834;2024-01-06T13:12:24;6.05;;;2.60;;
2546;SDS011;1283;47.982;7.834;2024-01-06T13:14:55;6.93;;;3.00;;
2546;SDS011;1283;47.982;7.834;2024-01-06T13:17:21;8.48;;;4.47;;
2546;SDS011;1283;47.982;7.834;2024-01-06T13:19:48;7.97;;;3.30;;
2546;SDS011;1283;47.982;7.834;2024-01-06T13:22:14;5.72;;;2.58;;
2546;SDS011;1283;47.982;7.834;2024-01-06T13:24:43;8.07;;;2.65;;
2546;SDS011;1283;47.982;7.834;2024-01-06T13:27:09;3.58;;;2.55;;
2546;SDS011;1283;47.982;7.834;2024-01-06T13:29:36;4.13;;;2.35;;
2546;SDS011;1283;47.982;7.834;2024-01-06T13:32:05;4.13;;;2.33;;
2546;SDS011;1283;47.982;7.834;2024-01-06T13:34:31;4.35;;;2.00;;
2546;SDS011;1283;47.982;7.834;2024-01-06T13:36:58;2.67;;;1.50;;
2546;SDS011;1283;47.982;7.834;2024-01-06T13:39:24;3.47;;;1.88;;
2546;SDS011;1283;47.982;7.834;2024-01-06T13:41:51;2.58;;;1.50;;
2546;SDS011;1283;47.982;7.834;2024-01-06T13:44:17;6.53;;;2.88;;
2546;SDS011;1283;47.982;7.834;2024-01-06T13:46:44;5.07;;;2.47;;
2546;SDS011;1283;47.982;7.834;2024-01-06T13:49:12;3.05;;;1.60;;
2546;SDS011;1283;47.982;7.834;2024-01-06T13:51:39;3.03;;;1.42;;
2546;SDS011;1283;47.982;7.834;2024-01-06T13:54:05;4.18;;;2.20;;
2546;SDS011;1283;47.982;7.834;2024-01-06T13:56:32;2.53;;;1.27;;
2546;SDS011;1283;47.982;7.834;2024-01-06T13:58:58;2.40;;;1.40;;
2546;SDS011;1283;47.982;7.834;2024-01-06T14:01:25;2.53;;;1.10;;
2546;SDS011;1283;47.982;7.834;2024-01-06T14:03:51;3.25;;;1.77;;
2546;SDS011;1283;47.982;7.834;2024-01-06T14:06:23;4.90;;;1.95;;
2546;SDS011;1283;47.982;7.834;2024-01-06T14:08:50;6.43;;;3.15;;
2546;SDS011;1283;47.982;7.834;2024-01-06T14:11:17;6.10;;;3.20;;
2546;SDS011;1283;47.982;7.834;2024-01-06T14:13:44;8.52;;;4.28;;
2546;SDS011;1283;47.982;7.834;2024-01-06T14:16:13;7.88;;;2.97;;
2546;SDS011;1283;47.982;7.834;2024-01-06T14:18:40;2.88;;;2.05;;
2546;SDS011;1283;47.982;7.834;2024-01-06T14:21:07;3.05;;;1.70;;
2546;SDS011;1283;47.982;7.834;2024-01-06T14:23:36;2.33;;;1.45;;
2546;SDS011;1283;47.982;7.834;2024-01-06T14:26:03;3.13;;;1.92;;
2546;SDS011;1283;47.982;7.834;2024-01-06T14:28:29;2.45;;;1.42;;
2546;SDS011;1283;47.982;7.834;2024-01-06T14:30:56;3.08;;;1.65;;
2546;SDS011;1283;47.982;7.834;2024-01-06T14:33:22;1.80;;;1.23;;
2546;SDS011;1283;47.982;7.834;2024-01-06T14:35:49;2.60;;;1.45;;
2546;SDS011;1283;47.982;7.834;2024-01-06T14:38:15;3.92;;;2.00;;
2546;SDS011;1283;47.982;7.834;2024-01-06T14:40:43;4.07;;;1.98;;
2546;SDS011;1283;47.982;7.834;2024-01-06T14:43:09;3.55;;;2.08;;
2546;SDS011;1283;47.982;7.834;2024-01-06T14:45:36;2.60;;;1.77;;
2546;SDS011;1283;47.982;7.834;2024-01-06T14:48:03;9.10;;;3.63;;
2546;SDS011;1283;47.982;7.834;2024-01-06T14:50:30;3.22;;;2.00;;
2546;SDS011;1283;47.982;7.834;2024-01-06T14:52:56;2.65;;;1.45;;
2546;SDS011;1283;47.982;7.834;2024-01-06T14:55:23;2.33;;;1.67;;
2546;SDS011;1283;47.982;7.834;2024-01-06T14:57:51;4.50;;;1.70;;
2546;SDS011;1283;47.982;7.834;2024-01-06T15:00:17;1.88;;;1.40;;
2546;SDS011;1283;47.982;7.834;2024-01-06T15:02:44;2.05;;;1.30;;
2546;SDS011;1283;47.982;7.834;2024-01-06T15:05:12;1.35;;;0.95;;
2546;SDS011;1283;47.982;7.834;2024-01-06T15:07:38;1.92;;;1.10;;
2546;SDS011;1283;47.982;7.834;2024-01-06T15:10:05;3.20;;;1.30;;
2546;SDS011;1283;47.982;7.834;2024-01-06T15:12:33;2.13;;;1.10;;
2546;SDS011;1283;47.982;7.834;2024-01-06T15:15:01;2.92;;;1.80;;